createdAt,value
2022-09-28T00:04:37.699Z,7.60
2022-09-28T00:09:39.777Z,7.50
2022-09-28T00:14:43.095Z,7.55
2022-09-28T00:19:45.056Z,7.61
2022-09-28T00:24:47.249Z,7.59
2022-09-28T00:29:50.880Z,7.62
2022-09-28T00:34:52.912Z,7.57
2022-09-28T00:39:54.991Z,7.58
2022-09-28T00:44:58.774Z,7.55
2022-09-28T00:50:03.904Z,7.58
2022-09-28T00:55:08.848Z,7.59
2022-09-28T01:00:14.362Z,7.57
2022-09-28T01:05:18.344Z,7.58
2022-09-28T01:10:19.926Z,7.55
2022-09-28T01:15:26.625Z,7.54
2022-09-28T01:20:50.267Z,7.55
2022-09-28T01:25:55.768Z,7.54
2022-09-28T01:31:05.987Z,7.49
2022-09-28T01:36:14.214Z,7.55
2022-09-28T01:41:17.239Z,7.56
2022-09-28T01:46:22.353Z,7.56
2022-09-28T01:51:32.407Z,7.52
2022-09-28T01:56:39.733Z,7.56
2022-09-28T02:01:48.252Z,7.51
2022-09-28T02:06:56.336Z,7.52
2022-09-28T02:12:02.729Z,7.51
2022-09-28T02:17:06.680Z,7.44
2022-09-28T02:22:19.194Z,7.37
2022-09-28T02:27:29.488Z,7.43
2022-09-28T02:32:35.441Z,7.49
2022-09-28T02:37:37.602Z,7.42
2022-09-28T02:42:49.204Z,7.37
2022-09-28T02:48:05.742Z,7.35
2022-09-28T02:53:25.612Z,7.33
2022-09-28T02:58:39.481Z,7.40
2022-09-28T03:03:50.872Z,7.42
2022-09-28T03:08:59.823Z,7.34
2022-09-28T03:14:03.067Z,7.18
2022-09-28T03:19:06.435Z,7.08
2022-09-28T03:24:08.661Z,7.19
2022-09-28T03:29:10.774Z,7.23
2022-09-28T03:34:14.226Z,7.14
2022-09-28T03:39:15.869Z,6.97
2022-09-28T03:44:17.500Z,6.86
2022-09-28T03:49:20.421Z,6.77
2022-09-28T03:54:22.500Z,6.64
2022-09-28T03:59:24.220Z,6.71
2022-09-28T04:04:27.535Z,6.94
2022-09-28T04:09:29.156Z,7.07
2022-09-28T04:14:30.785Z,7.07
2022-09-28T04:19:33.782Z,7.02
2022-09-28T04:24:35.797Z,7.12
2022-09-28T04:29:37.777Z,7.14
2022-09-28T04:34:44.089Z,7.21
2022-09-28T04:39:48.574Z,7.25
2022-09-28T04:44:50.690Z,7.25
2022-09-28T04:49:53.674Z,7.30
2022-09-28T04:54:55.870Z,7.31
2022-09-28T04:59:57.988Z,7.29
2022-09-28T05:05:01.306Z,7.27
2022-09-28T05:10:03.144Z,7.28
2022-09-28T05:15:06.019Z,7.32
2022-09-28T05:20:10.091Z,7.38
2022-09-28T05:25:12.002Z,7.39
2022-09-28T05:30:14.426Z,7.42
2022-09-28T05:35:18.285Z,7.50
2022-09-28T05:40:19.911Z,7.50
2022-09-28T05:45:21.840Z,7.47
2022-09-28T05:50:25.332Z,7.39
2022-09-28T05:55:28.084Z,7.36
2022-09-28T06:00:32.258Z,7.35
2022-09-28T06:05:36.334Z,7.36
2022-09-28T06:10:38.529Z,7.38
2022-09-28T06:15:42.479Z,7.43
2022-09-28T06:20:45.434Z,7.48
2022-09-28T06:25:47.483Z,7.52
2022-09-28T06:30:49.484Z,7.62
2022-09-28T06:35:53.616Z,7.71
2022-09-28T06:40:57.535Z,7.88
2022-09-28T06:45:59.991Z,8.02
2022-09-28T06:51:03.437Z,8.06
2022-09-28T06:56:08.193Z,8.26
2022-09-28T07:01:10.204Z,8.46
2022-09-28T07:06:13.571Z,8.61
2022-09-28T07:11:15.614Z,8.71
2022-09-28T07:16:17.347Z,8.82
2022-09-28T07:21:29.149Z,9.10
2022-09-28T07:26:32.233Z,9.08
2022-09-28T07:31:34.281Z,9.28
2022-09-28T07:36:37.354Z,9.22
2022-09-28T07:41:39.522Z,9.39
2022-09-28T07:46:41.789Z,9.71
2022-09-28T07:51:45.196Z,9.87
2022-09-28T07:56:47.570Z,9.68
2022-09-28T08:01:49.981Z,9.97
2022-09-28T08:06:54.027Z,9.91
2022-09-28T08:11:56.530Z,9.99
2022-09-28T08:16:58.799Z,10.15
2022-09-28T08:22:01.739Z,10.33
2022-09-28T08:27:04.013Z,10.48
2022-09-28T08:32:07.318Z,10.86
2022-09-28T08:37:10.766Z,11.22
2022-09-28T08:42:30.807Z,11.42
2022-09-28T08:47:37.680Z,12.00
2022-09-28T08:52:41.250Z,12.37
2022-09-28T08:57:48.584Z,12.12
2022-09-28T09:02:50.701Z,12.15
2022-09-28T09:08:14.024Z,11.98
2022-09-28T09:13:40.842Z,11.80
2022-09-28T09:18:49.282Z,11.75
2022-09-28T09:23:55.833Z,11.81
2022-09-28T09:29:21.958Z,12.09
2022-09-28T09:34:48.226Z,11.71
2022-09-28T09:40:04.237Z,11.72
2022-09-28T09:45:30.594Z,11.69
2022-09-28T09:50:35.531Z,11.52
2022-09-28T09:55:41.856Z,11.54
2022-09-28T10:00:47.361Z,11.39
2022-09-28T10:05:56.299Z,11.03
2022-09-28T10:11:07.912Z,11.03
2022-09-28T10:16:09.623Z,11.21
2022-09-28T10:21:13.400Z,10.90
2022-09-28T10:26:24.919Z,10.75
2022-09-28T10:31:34.671Z,10.70
2022-09-28T10:36:47.045Z,10.72
2022-09-28T10:41:51.197Z,10.73
2022-09-28T10:46:57.117Z,10.63
2022-09-28T10:51:58.826Z,10.37
2022-09-28T10:57:01.819Z,10.44
2022-09-28T11:02:20.851Z,10.46
2022-09-28T11:07:24.302Z,10.52
2022-09-28T11:12:37.214Z,10.53
2022-09-28T11:17:39.744Z,10.78
2022-09-28T11:22:41.653Z,10.58
2022-09-28T11:27:57.073Z,10.60
2022-09-28T11:33:03.680Z,10.43
2022-09-28T11:38:22.284Z,10.62
2022-09-28T11:43:42.634Z,11.01
2022-09-28T11:48:50.383Z,11.41
2022-09-28T11:53:56.818Z,11.76
2022-09-28T11:59:03.705Z,12.03
2022-09-28T12:04:12.339Z,12.18
2022-09-28T12:09:20.843Z,12.66
2022-09-28T12:14:28.892Z,12.87
2022-09-28T12:19:34.255Z,12.49
2022-09-28T12:24:39.533Z,12.40
2022-09-28T12:29:46.316Z,12.89
2022-09-28T12:34:48.023Z,13.01
2022-09-28T12:40:07.688Z,13.18
2022-09-28T12:45:23.783Z,13.19
2022-09-28T12:50:42.834Z,13.03
2022-09-28T12:55:58.492Z,12.91
2022-09-28T13:01:14.689Z,12.72
2022-09-28T13:06:28.965Z,12.66
2022-09-28T13:11:37.178Z,12.85
2022-09-28T13:16:50.778Z,12.41
2022-09-28T13:21:59.010Z,12.23
2022-09-28T13:27:07.609Z,12.38
2022-09-28T13:32:12.098Z,12.20
2022-09-28T13:37:23.167Z,12.10
2022-09-28T13:42:59.279Z,12.28
2022-09-28T13:48:13.090Z,12.00
2022-09-28T13:53:26.875Z,12.50
2022-09-28T13:58:32.688Z,12.88
2022-09-28T14:03:55.615Z,12.95
2022-09-28T14:09:22.813Z,13.01
2022-09-28T14:14:27.643Z,12.98
2022-09-28T14:19:33.707Z,12.88
2022-09-28T14:24:56.027Z,12.84
2022-09-28T14:30:07.586Z,12.76
2022-09-28T14:35:20.135Z,13.07
2022-09-28T14:40:25.490Z,12.87
2022-09-28T14:45:36.041Z,13.05
2022-09-28T14:50:39.522Z,13.21
2022-09-28T14:55:46.510Z,13.07
2022-09-28T15:00:54.212Z,12.84
2022-09-28T15:05:57.577Z,12.40
2022-09-28T15:10:59.636Z,12.21
2022-09-28T15:16:06.751Z,12.10
2022-09-28T15:21:10.430Z,11.94
2022-09-28T15:26:23.041Z,12.10
2022-09-28T15:31:28.224Z,11.83
2022-09-28T15:36:34.998Z,11.59
2022-09-28T15:41:36.845Z,11.26
2022-09-28T15:46:41.218Z,11.08
2022-09-28T15:51:51.016Z,10.75
2022-09-28T15:56:55.489Z,10.48
2022-09-28T16:02:11.670Z,10.28
2022-09-28T16:07:24.760Z,10.15
2022-09-28T16:12:32.531Z,10.06
2022-09-28T16:17:35.335Z,9.95
2022-09-28T16:22:42.921Z,9.85
2022-09-28T16:27:45.464Z,9.72
2022-09-28T16:32:58.072Z,9.63
2022-09-28T16:38:06.095Z,9.52
2022-09-28T16:43:13.278Z,9.49
2022-09-28T16:48:16.028Z,9.37
2022-09-28T16:53:19.001Z,9.38
2022-09-28T16:58:21.037Z,9.31
2022-09-28T17:03:23.290Z,9.25
2022-09-28T17:08:26.291Z,9.19
2022-09-28T17:13:30.590Z,9.13
2022-09-28T17:18:32.318Z,9.17
2022-09-28T17:23:36.054Z,9.20
2022-09-28T17:28:38.056Z,9.20
2022-09-28T17:33:40.100Z,9.13
2022-09-28T17:38:43.629Z,9.15
2022-09-28T17:43:46.287Z,9.07
2022-09-28T17:48:48.273Z,9.04
2022-09-28T17:53:51.627Z,8.93
2022-09-28T17:58:53.965Z,8.91
2022-09-28T18:03:55.960Z,8.92
2022-09-28T18:08:59.272Z,8.84
2022-09-28T18:14:01.289Z,8.77
2022-09-28T18:19:03.329Z,8.79
2022-09-28T18:24:06.726Z,8.76
2022-09-28T18:29:08.423Z,8.72
2022-09-28T18:34:10.047Z,8.73
2022-09-28T18:39:13.216Z,8.77
2022-09-28T18:44:15.013Z,8.77
2022-09-28T18:49:17.059Z,8.73
2022-09-28T18:54:20.290Z,8.80
2022-09-28T18:59:22.493Z,8.77
2022-09-28T19:04:24.388Z,8.67
2022-09-28T19:09:27.903Z,8.61
2022-09-28T19:14:29.920Z,8.50
2022-09-28T19:19:32.354Z,8.41
2022-09-28T19:24:35.972Z,8.33
2022-09-28T19:29:37.679Z,8.06
2022-09-28T19:34:39.388Z,7.82
2022-09-28T19:39:43.067Z,7.71
2022-09-28T19:44:45.428Z,7.55
2022-09-28T19:49:47.253Z,7.42
2022-09-28T19:54:52.433Z,7.32
2022-09-28T19:59:59.222Z,7.33
2022-09-28T20:05:04.377Z,7.29
2022-09-28T20:10:08.328Z,7.14
2022-09-28T20:15:10.749Z,7.01
2022-09-28T20:20:12.804Z,7.01
2022-09-28T20:25:16.540Z,6.84
2022-09-28T20:30:18.478Z,6.79
2022-09-28T20:35:32.259Z,6.91
2022-09-28T20:40:36.476Z,7.07
2022-09-28T20:45:38.583Z,7.17
2022-09-28T20:50:40.510Z,7.26
2022-09-28T20:55:43.480Z,7.33
2022-09-28T21:00:45.399Z,7.46
2022-09-28T21:05:51.031Z,7.58
2022-09-28T21:10:54.024Z,7.57
2022-09-28T21:16:00.915Z,7.59
2022-09-28T21:21:06.059Z,7.66
2022-09-28T21:26:11.599Z,7.68
2022-09-28T21:31:14.252Z,7.74
2022-09-28T21:36:16.311Z,7.74
2022-09-28T21:41:19.713Z,7.67
2022-09-28T21:46:22.304Z,7.66
2022-09-28T21:51:24.228Z,7.67
2022-09-28T21:56:27.574Z,7.64
2022-09-28T22:01:29.770Z,7.70
2022-09-28T22:06:31.806Z,7.67
2022-09-28T22:11:35.311Z,7.62
2022-09-28T22:16:37.174Z,7.48
2022-09-28T22:21:38.899Z,7.36
2022-09-28T22:26:42.264Z,7.14
2022-09-28T22:31:43.986Z,6.91
2022-09-28T22:36:46.066Z,6.65
2022-09-28T22:41:49.026Z,6.48
2022-09-28T22:46:50.995Z,6.34
2022-09-28T22:51:53.150Z,6.25
2022-09-28T22:56:56.115Z,6.17
2022-09-28T23:01:58.863Z,6.02
2022-09-28T23:07:02.088Z,5.95
2022-09-28T23:12:06.031Z,6.09
2022-09-28T23:17:08.349Z,6.29
2022-09-28T23:22:09.976Z,6.20
2022-09-28T23:27:13.221Z,6.20
2022-09-28T23:32:16.253Z,6.30
2022-09-28T23:37:18.010Z,6.27
2022-09-28T23:42:21.338Z,6.35
2022-09-28T23:47:22.939Z,6.57
2022-09-28T23:52:24.935Z,6.72
2022-09-28T23:57:27.907Z,6.76
